Time;durP1;ratioP1;P1;durP2;ratioP2;P2;SDS_P1;SDS_P2;PMS_P1;PMS_P2;Temp;Humidity;BMP_temperature;BMP_pressure;BME280_temperature;BME280_humidity;BME280_pressure;Samples;Min_cycle;Max_cycle;Signal;HPM_P1;HPM_P2
2022/11/05 00:10:26;;;;;;;10.30;3.97;;;6.90;99.90;;;;;;4924577;29;20142;-65
2022/11/05 00:18:22;;;;;;;11.65;4.07;;;6.90;99.90;;;;;;4924838;29;20113;-65
2022/11/05 00:20:48;;;;;;;9.73;3.75;;;6.70;99.90;;;;;;4925206;29;20052;-65
2022/11/05 00:26:04;;;;;;;12.65;3.55;;;6.80;99.90;;;;;;4924527;29;20111;-63
2022/11/05 00:28:30;;;;;;;10.23;3.40;;;6.80;99.90;;;;;;4924281;29;20055;-63
2022/11/05 00:31:03;;;;;;;13.95;3.67;;;6.70;99.90;;;;;;4923982;29;20055;-62
2022/11/05 00:33:29;;;;;;;11.27;4.57;;;6.70;99.90;;;;;;4924868;29;20055;-63
2022/11/05 00:35:55;;;;;;;11.25;4.30;;;6.70;99.90;;;;;;4924689;29;20054;-63
2022/11/05 00:38:21;;;;;;;13.00;4.38;;;6.70;99.90;;;;;;4924191;29;20127;-62
2022/11/05 00:40:47;;;;;;;11.15;3.88;;;6.80;99.90;;;;;;4924002;29;20068;-63
2022/11/05 00:45:57;;;;;;;10.55;3.97;;;6.70;99.90;;;;;;4925174;29;20055;-63
2022/11/05 00:51:07;;;;;;;10.43;4.35;;;6.80;99.90;;;;;;4923898;29;20082;-64
2022/11/05 00:53:33;;;;;;;10.85;4.40;;;6.90;99.90;;;;;;4924894;29;20051;-64
2022/11/05 00:55:59;;;;;;;13.77;5.28;;;6.80;99.90;;;;;;4906872;29;20040;-64
2022/11/05 00:58:28;;;;;;;10.80;3.60;;;6.70;99.90;;;;;;4908066;29;20075;-64
2022/11/05 01:00:57;;;;;;;10.30;3.45;;;6.60;99.90;;;;;;4924040;29;20324;-64
2022/11/05 01:03:28;;;;;;;11.88;3.53;;;6.70;99.90;;;;;;4924844;29;20071;-63
2022/11/05 01:06:05;;;;;;;11.95;3.38;;;6.80;99.90;;;;;;4924427;29;20449;-63
2022/11/05 01:08:31;;;;;;;9.43;4.03;;;6.80;99.90;;;;;;4906599;29;20072;-64
2022/11/05 01:10:57;;;;;;;10.18;3.78;;;6.80;99.90;;;;;;4907523;29;20048;-64
2022/11/05 01:13:27;;;;;;;10.77;3.50;;;6.70;99.90;;;;;;4923568;29;20044;-63
2022/11/05 01:15:54;;;;;;;9.77;3.45;;;6.70;99.90;;;;;;4924941;29;20044;-64
2022/11/05 01:18:20;;;;;;;10.75;3.83;;;6.70;99.90;;;;;;4924016;29;20040;-64
2022/11/05 01:20:46;;;;;;;9.20;3.30;;;6.80;99.90;;;;;;4907038;29;20048;-64
2022/11/05 01:23:12;;;;;;;13.63;4.43;;;6.80;99.90;;;;;;4907067;29;20080;-64
2022/11/05 01:25:38;;;;;;;10.40;3.55;;;6.80;99.90;;;;;;4922488;29;20048;-64
2022/11/05 01:28:04;;;;;;;8.95;3.30;;;7.20;99.90;;;;;;4923606;29;20086;-65
2022/11/05 01:30:30;;;;;;;10.75;3.13;;;6.90;99.90;;;;;;4904494;29;20100;-64
2022/11/05 01:32:56;;;;;;;9.02;2.83;;;6.80;99.90;;;;;;4923854;29;20036;-64
2022/11/05 01:35:22;;;;;;;12.65;3.42;;;6.80;99.90;;;;;;4922267;29;20052;-63
2022/11/05 01:37:48;;;;;;;7.28;2.92;;;6.70;99.90;;;;;;4905593;29;20115;-63
2022/11/05 01:40:17;;;;;;;13.50;2.85;;;6.80;99.90;;;;;;4922578;29;20052;-64
2022/11/05 01:42:43;;;;;;;8.18;3.28;;;6.70;99.90;;;;;;4922168;29;20359;-63
2022/11/05 01:45:08;;;;;;;11.32;3.38;;;6.70;99.90;;;;;;4922802;29;20051;-63
2022/11/05 01:47:40;;;;;;;11.60;2.88;;;6.90;99.90;;;;;;4922024;29;20044;-64
2022/11/05 01:50:29;;;;;;;10.82;2.88;;;6.70;99.90;;;;;;4923365;29;20047;-64
2022/11/05 01:53:08;;;;;;;7.10;2.40;;;6.90;99.90;;;;;;4876766;29;20060;-64
2022/11/05 01:55:39;;;;;;;10.48;2.67;;;6.70;99.90;;;;;;4904959;29;20040;-65
2022/11/05 01:58:07;;;;;;;12.55;2.65;;;6.80;99.90;;;;;;4906170;29;20116;-64
2022/11/05 02:00:34;;;;;;;12.32;3.40;;;6.70;99.90;;;;;;4921711;29;20177;-64
2022/11/05 02:03:00;;;;;;;8.85;2.70;;;6.70;99.90;;;;;;4923009;29;20071;-64
2022/11/05 02:05:27;;;;;;;9.30;2.42;;;6.60;99.90;;;;;;4922110;29;20040;-65
2022/11/05 02:07:53;;;;;;;9.60;3.95;;;6.70;99.90;;;;;;4922753;29;20059;-64
2022/11/05 02:10:20;;;;;;;7.97;2.75;;;6.70;99.90;;;;;;4922481;29;20052;-64
2022/11/05 02:12:50;;;;;;;8.85;2.38;;;6.70;99.90;;;;;;4921645;29;20052;-64
2022/11/05 02:15:23;;;;;;;9.70;2.83;;;6.70;99.90;;;;;;4922901;29;20550;-64
2022/11/05 02:17:54;;;;;;;10.10;2.90;;;6.60;99.90;;;;;;4921499;29;20051;-64
2022/11/05 02:20:35;;;;;;;8.55;2.63;;;6.80;99.90;;;;;;4922796;29;20450;-65
2022/11/05 02:23:16;;;;;;;7.32;2.60;;;6.70;99.90;;;;;;4884736;29;1073552;-64
2022/11/05 02:25:41;;;;;;;10.10;2.90;;;6.60;99.90;;;;;;4922267;29;20052;-64
2022/11/05 02:28:37;;;;;;;10.10;2.42;;;6.70;99.90;;;;;;4923213;29;20074;-65
2022/11/05 02:31:16;;;;;;;10.55;2.60;;;6.60;99.90;;;;;;4922662;29;20042;-64
2022/11/05 02:34:26;;;;;;;8.77;2.25;;;6.60;99.90;;;;;;4922140;29;20048;-65
2022/11/05 02:37:04;;;;;;;7.15;2.90;;;6.70;99.90;;;;;;4918698;29;20052;-64
2022/11/05 02:39:52;;;;;;;8.13;3.08;;;6.80;99.90;;;;;;4921880;29;20055;-64
2022/11/05 02:42:23;;;;;;;9.40;2.58;;;6.60;99.90;;;;;;4905504;29;20134;-65
2022/11/05 02:45:00;;;;;;;10.90;2.67;;;6.70;99.90;;;;;;4922568;29;20051;-64
2022/11/05 02:47:39;;;;;;;7.68;2.10;;;6.60;99.90;;;;;;4921636;29;20359;-64
2022/11/05 02:50:08;;;;;;;7.90;2.30;;;6.60;99.90;;;;;;4923460;29;20048;-64
2022/11/05 02:52:45;;;;;;;7.82;2.13;;;6.70;99.90;;;;;;4905318;29;20076;-64
2022/11/05 02:55:17;;;;;;;9.15;2.25;;;6.70;99.90;;;;;;4905059;29;20052;-65
2022/11/05 02:57:45;;;;;;;6.80;2.40;;;6.80;99.90;;;;;;4922921;29;20634;-65
2022/11/05 03:00:38;;;;;;;5.80;2.15;;;6.80;99.90;;;;;;4921835;29;20036;-65
2022/11/05 03:03:13;;;;;;;7.65;2.35;;;6.70;99.90;;;;;;4923856;29;20127;-64
2022/11/05 03:05:54;;;;;;;10.40;2.60;;;6.70;99.90;;;;;;4924410;29;20048;-64
2022/11/05 03:08:35;;;;;;;7.53;2.38;;;6.90;99.90;;;;;;4924298;29;20520;-65
2022/11/05 03:11:11;;;;;;;10.43;2.60;;;6.80;99.90;;;;;;4926705;29;20088;-64
2022/11/05 03:13:49;;;;;;;8.48;3.88;;;6.90;99.90;;;;;;4925750;29;20059;-65
2022/11/05 03:16:27;;;;;;;10.30;2.60;;;7.00;99.90;;;;;;4926595;29;20051;-65
2022/11/05 03:19:01;;;;;;;5.40;2.17;;;6.90;99.90;;;;;;4926512;29;20107;-65
2022/11/05 03:21:43;;;;;;;9.25;2.63;;;6.90;99.90;;;;;;4925820;29;20044;-64
2022/11/05 03:24:17;;;;;;;10.98;3.58;;;7.20;99.90;;;;;;4909761;29;20064;-65
2022/11/05 03:26:58;;;;;;;9.10;3.83;;;7.20;99.90;;;;;;4925255;29;20083;-65
2022/11/05 03:29:33;;;;;;;11.27;2.60;;;7.30;99.90;;;;;;4926007;29;20056;-65
2022/11/05 03:32:01;;;;;;;6.35;2.72;;;7.20;99.90;;;;;;4909286;29;20083;-65
2022/11/05 03:34:32;;;;;;;6.30;2.40;;;7.10;99.90;;;;;;4925283;29;20047;-65
2022/11/05 03:37:01;;;;;;;8.65;2.83;;;7.10;99.90;;;;;;4926379;29;20044;-64
2022/11/05 03:39:34;;;;;;;10.10;2.75;;;7.30;99.90;;;;;;4925319;29;20115;-64
2022/11/05 03:42:02;;;;;;;6.63;2.35;;;7.30;99.90;;;;;;4925775;29;20062;-65
2022/11/05 03:44:31;;;;;;;7.03;2.78;;;7.30;99.90;;;;;;4925797;29;20045;-64
2022/11/05 03:47:07;;;;;;;9.90;2.33;;;7.30;99.90;;;;;;4908064;29;20050;-65
2022/11/05 03:49:46;;;;;;;10.57;2.63;;;7.20;99.90;;;;;;4922532;29;20337;-65
2022/11/05 03:52:18;;;;;;;10.40;2.28;;;7.20;99.90;;;;;;4916641;29;20048;-64
2022/11/05 03:54:45;;;;;;;11.32;2.10;;;7.20;99.90;;;;;;4916610;29;20059;-64
2022/11/05 03:57:35;;;;;;;8.57;2.20;;;7.30;99.90;;;;;;4907946;29;20049;-64
2022/11/05 04:00:04;;;;;;;13.68;2.45;;;7.10;99.90;;;;;;4905924;29;20053;-64
2022/11/05 04:02:30;;;;;;;6.70;2.28;;;7.20;99.90;;;;;;4907357;29;20044;-64
2022/11/05 04:04:56;;;;;;;6.13;2.00;;;7.20;99.90;;;;;;4905561;29;20185;-64
2022/11/05 04:17:05;;;;;;;6.63;2.20;;;7.20;99.90;;;;;;4926029;29;20091;-65
2022/11/05 04:18:21;;;;;;;8.20;2.30;;;7.30;99.90;;;;;;4924867;29;20099;-64
2022/11/05 04:26:15;;;;;;;8.70;2.00;;;7.20;99.90;;;;;;4905268;29;20093;-65
2022/11/05 04:31:25;;;;;;;6.78;1.95;;;7.10;99.90;;;;;;4905929;29;20084;-65
2022/11/05 04:33:51;;;;;;;6.72;2.30;;;7.30;99.90;;;;;;4888773;29;20148;-65
2022/11/05 04:36:18;;;;;;;7.32;2.28;;;7.20;99.90;;;;;;4899515;29;20055;-65
2022/11/05 04:38:44;;;;;;;6.78;2.30;;;7.20;99.90;;;;;;4909401;29;20658;-65
2022/11/05 04:41:15;;;;;;;7.75;2.00;;;7.20;99.90;;;;;;4924659;29;20068;-65
2022/11/05 04:43:41;;;;;;;8.48;2.20;;;7.20;99.90;;;;;;4924105;29;20059;-64
2022/11/05 04:46:08;;;;;;;12.05;2.47;;;7.20;99.90;;;;;;4925083;29;20127;-65
2022/11/05 04:48:33;;;;;;;6.43;2.00;;;7.10;99.90;;;;;;4924688;29;20398;-65
2022/11/05 04:50:59;;;;;;;10.70;3.25;;;7.30;99.90;;;;;;4924445;29;20128;-65
2022/11/05 04:53:25;;;;;;;8.45;2.25;;;7.30;99.90;;;;;;4925129;29;20048;-65
2022/11/05 04:55:50;;;;;;;8.68;2.47;;;7.00;99.90;;;;;;4906706;29;20078;-65
2022/11/05 04:58:16;;;;;;;6.85;1.85;;;6.80;99.90;;;;;;4914854;29;20060;-65
2022/11/05 05:00:42;;;;;;;6.22;2.10;;;6.90;99.90;;;;;;4904852;29;20049;-64
2022/11/05 05:03:07;;;;;;;9.98;2.47;;;6.80;99.90;;;;;;4905923;29;20048;-65
2022/11/05 05:05:33;;;;;;;8.73;2.42;;;6.80;99.90;;;;;;4905104;29;20040;-64
2022/11/05 05:08:05;;;;;;;5.95;2.38;;;6.80;99.90;;;;;;4905040;29;20055;-65
2022/11/05 05:10:31;;;;;;;8.18;2.63;;;6.80;99.90;;;;;;4913553;29;20176;-65
2022/11/05 05:12:57;;;;;;;8.68;1.95;;;6.80;99.90;;;;;;4922718;29;20044;-65
2022/11/05 05:15:23;;;;;;;6.00;2.38;;;6.70;99.90;;;;;;4924295;29;20063;-64
2022/11/05 05:17:52;;;;;;;5.03;1.77;;;6.80;99.90;;;;;;4923595;29;20442;-64
2022/11/05 05:23:03;;;;;;;9.55;3.10;;;6.80;99.90;;;;;;4923609;29;20087;-65
2022/11/05 05:25:30;;;;;;;8.77;2.80;;;6.80;99.90;;;;;;4922604;29;20059;-62
2022/11/05 05:27:56;;;;;;;6.97;2.53;;;6.80;99.90;;;;;;4924375;29;20079;-65
2022/11/05 05:30:22;;;;;;;7.45;2.72;;;6.80;99.90;;;;;;4922824;29;20052;-65
2022/11/05 05:32:48;;;;;;;6.75;2.30;;;6.80;99.90;;;;;;4924256;29;20092;-65
2022/11/05 05:35:14;;;;;;;8.38;2.40;;;6.90;99.90;;;;;;4923076;29;20048;-65
2022/11/05 05:37:40;;;;;;;7.47;2.35;;;6.90;99.90;;;;;;4922917;29;20059;-64
2022/11/05 05:40:07;;;;;;;7.50;2.67;;;6.70;99.90;;;;;;4923219;29;20040;-64
2022/11/05 05:42:33;;;;;;;9.50;2.75;;;6.80;99.90;;;;;;4922950;29;20392;-64
2022/11/05 05:44:59;;;;;;;7.88;3.17;;;6.90;99.90;;;;;;4923808;29;20116;-64
2022/11/05 05:47:25;;;;;;;9.27;3.28;;;6.70;99.90;;;;;;4905633;29;20060;-64
2022/11/05 05:49:51;;;;;;;10.73;3.10;;;6.70;99.90;;;;;;4924262;29;20070;-64
2022/11/05 05:52:16;;;;;;;9.98;3.25;;;7.00;99.90;;;;;;4921937;29;20048;-64
2022/11/05 05:54:42;;;;;;;7.82;3.28;;;6.90;99.90;;;;;;4923221;29;20040;-65
2022/11/05 05:57:08;;;;;;;7.97;3.08;;;6.90;99.90;;;;;;4904463;29;20051;-64
2022/11/05 05:59:34;;;;;;;8.07;4.15;;;6.90;99.90;;;;;;4912166;29;20048;-65
2022/11/05 06:01:59;;;;;;;9.38;3.88;;;6.90;99.90;;;;;;4923409;29;20076;-65
2022/11/05 06:04:25;;;;;;;9.23;3.58;;;6.90;99.90;;;;;;4905336;29;20527;-65
2022/11/05 06:06:51;;;;;;;9.43;4.00;;;7.10;99.90;;;;;;4923620;29;20626;-65
2022/11/05 06:09:17;;;;;;;10.02;3.88;;;7.20;99.90;;;;;;4922389;29;20052;-64
2022/11/05 06:11:42;;;;;;;10.05;4.35;;;7.60;99.90;;;;;;4905545;29;20059;-65
2022/11/05 06:14:10;;;;;;;10.18;4.35;;;7.10;99.90;;;;;;4923085;29;20047;-65
2022/11/05 06:16:37;;;;;;;9.35;4.30;;;7.20;99.90;;;;;;4905868;29;20608;-65
2022/11/05 06:19:03;;;;;;;10.63;4.72;;;7.00;99.90;;;;;;4923321;29;20048;-65
2022/11/05 06:21:29;;;;;;;9.77;4.57;;;6.90;99.90;;;;;;4922142;29;20045;-65
2022/11/05 06:23:55;;;;;;;9.07;4.53;;;6.90;99.90;;;;;;4923390;29;20593;-65
2022/11/05 06:26:20;;;;;;;8.80;4.95;;;7.00;99.90;;;;;;4922197;29;20051;-63
2022/11/05 06:28:46;;;;;;;11.13;4.35;;;6.90;99.90;;;;;;4923226;29;20044;-65
2022/11/05 06:31:13;;;;;;;8.73;4.88;;;7.00;99.90;;;;;;4922403;29;20036;-65
2022/11/05 06:33:39;;;;;;;9.88;4.30;;;7.00;99.90;;;;;;4922453;29;20044;-65
2022/11/05 06:36:06;;;;;;;12.57;4.47;;;6.80;99.90;;;;;;4922846;29;20044;-65
2022/11/05 06:38:35;;;;;;;11.30;4.88;;;6.90;99.90;;;;;;4921065;29;20087;-64
2022/11/05 06:41:01;;;;;;;8.30;4.13;;;7.00;99.90;;;;;;4922897;29;20044;-65
2022/11/05 06:43:27;;;;;;;11.05;4.22;;;6.70;99.90;;;;;;4889481;29;20044;-65
2022/11/05 06:45:54;;;;;;;9.75;4.30;;;7.00;99.90;;;;;;4922512;29;20051;-64
2022/11/05 06:48:20;;;;;;;9.60;4.22;;;7.10;99.90;;;;;;4921853;29;20805;-63
2022/11/05 06:50:46;;;;;;;9.68;4.60;;;7.00;99.90;;;;;;4921682;29;20064;-64
2022/11/05 06:53:13;;;;;;;8.75;4.43;;;6.80;99.90;;;;;;4905884;29;20127;-64
2022/11/05 06:55:39;;;;;;;8.25;4.00;;;7.00;99.90;;;;;;4921766;29;20051;-64
2022/11/05 06:58:05;;;;;;;8.80;4.03;;;6.90;99.90;;;;;;4897287;29;20052;-64
2022/11/05 07:00:30;;;;;;;11.95;4.00;;;7.10;99.90;;;;;;4902815;29;20073;-63
2022/11/05 07:03:06;;;;;;;8.50;3.78;;;7.10;99.90;;;;;;4904225;29;20045;-63
2022/11/05 07:05:34;;;;;;;8.38;4.50;;;7.20;99.90;;;;;;4886690;29;20057;-64
2022/11/05 07:07:59;;;;;;;8.75;4.30;;;7.00;99.90;;;;;;4902941;29;20080;-64
2022/11/05 07:10:25;;;;;;;9.02;4.00;;;7.00;99.90;;;;;;4904990;29;20051;-64
2022/11/05 07:12:50;;;;;;;8.50;3.70;;;7.00;99.90;;;;;;4921436;29;20037;-65
2022/11/05 07:15:16;;;;;;;7.43;3.85;;;7.10;99.90;;;;;;4922993;29;20044;-65
2022/11/05 07:17:42;;;;;;;7.57;3.80;;;6.90;99.90;;;;;;4921489;29;20040;-65
2022/11/05 07:20:08;;;;;;;9.40;3.95;;;7.20;99.90;;;;;;4923114;29;20126;-65
2022/11/05 07:22:34;;;;;;;9.35;4.15;;;6.90;99.90;;;;;;4921887;29;20051;-64
2022/11/05 07:25:00;;;;;;;13.77;4.57;;;7.00;99.90;;;;;;4922033;29;20060;-65
2022/11/05 07:27:26;;;;;;;9.80;4.10;;;7.10;99.90;;;;;;4922419;29;20070;-65
2022/11/05 07:29:52;;;;;;;8.88;4.25;;;7.10;99.90;;;;;;4918432;29;20040;-65
2022/11/05 07:32:18;;;;;;;10.80;4.15;;;7.00;99.90;;;;;;4922526;29;20516;-64
2022/11/05 07:34:43;;;;;;;11.43;4.35;;;7.00;99.90;;;;;;4920830;29;20060;-65
2022/11/05 07:37:09;;;;;;;8.88;4.47;;;7.20;99.90;;;;;;4917274;29;20044;-65
2022/11/05 07:39:35;;;;;;;8.27;4.72;;;7.00;99.90;;;;;;4917790;29;20059;-65
2022/11/05 07:42:00;;;;;;;9.95;4.45;;;7.10;99.90;;;;;;4918214;29;20044;-65
2022/11/05 07:44:26;;;;;;;9.55;4.32;;;7.00;99.90;;;;;;4917826;29;20536;-65
2022/11/05 07:46:51;;;;;;;7.32;4.10;;;7.10;99.90;;;;;;4917224;29;20079;-65
2022/11/05 07:49:17;;;;;;;10.32;4.35;;;7.10;99.90;;;;;;4902957;29;20071;-64
2022/11/05 07:51:43;;;;;;;9.23;4.10;;;7.00;99.90;;;;;;4920996;29;20060;-65
2022/11/05 07:54:10;;;;;;;12.07;4.57;;;7.20;99.90;;;;;;4922613;29;20048;-64
2022/11/05 07:56:35;;;;;;;10.68;4.32;;;7.30;99.90;;;;;;4920783;29;20143;-65
2022/11/05 07:59:02;;;;;;;9.38;4.68;;;7.20;99.90;;;;;;4921985;29;20051;-64
2022/11/05 08:01:27;;;;;;;7.38;3.95;;;7.40;99.90;;;;;;4921245;29;20055;-64
2022/11/05 08:03:53;;;;;;;8.40;4.90;;;7.40;99.90;;;;;;4920563;29;20060;-65
2022/11/05 08:06:19;;;;;;;8.30;4.85;;;7.50;99.90;;;;;;4921898;29;20040;-64
2022/11/05 08:08:44;;;;;;;9.10;4.10;;;7.50;99.90;;;;;;4920789;29;20620;-65
2022/11/05 08:11:11;;;;;;;8.25;4.25;;;7.80;99.90;;;;;;4922094;29;20044;-65
2022/11/05 08:13:37;;;;;;;10.73;4.53;;;7.60;99.90;;;;;;4903867;29;20056;-65
2022/11/05 08:16:04;;;;;;;9.57;4.38;;;7.70;99.90;;;;;;4921759;29;20044;-65
2022/11/05 08:18:31;;;;;;;12.05;4.38;;;7.70;99.90;;;;;;4921673;29;20040;-65
2022/11/05 08:20:58;;;;;;;7.95;4.18;;;7.90;99.90;;;;;;4903909;29;20056;-65
2022/11/05 08:23:25;;;;;;;10.65;4.70;;;8.10;99.90;;;;;;4904460;29;20082;-65
2022/11/05 08:25:51;;;;;;;12.27;4.68;;;8.10;99.90;;;;;;4920441;29;20092;-64
2022/11/05 08:28:18;;;;;;;7.95;4.55;;;8.00;99.90;;;;;;4921143;29;20040;-64
2022/11/05 08:30:48;;;;;;;11.50;4.53;;;8.20;99.90;;;;;;4919972;29;20132;-64
2022/11/05 08:33:14;;;;;;;10.48;4.32;;;8.30;99.90;;;;;;4921455;29;20059;-63
2022/11/05 08:35:40;;;;;;;7.32;3.85;;;8.50;99.90;;;;;;4921008;29;20048;-63
2022/11/05 08:38:07;;;;;;;9.75;4.07;;;8.60;99.90;;;;;;4920458;29;20055;-63
2022/11/05 08:40:35;;;;;;;9.85;4.43;;;8.80;99.90;;;;;;4921064;29;20057;-64
2022/11/05 08:43:03;;;;;;;9.80;4.20;;;8.60;99.90;;;;;;4920023;29;20048;-64
2022/11/05 08:45:30;;;;;;;9.85;4.15;;;8.70;99.90;;;;;;4921592;29;20092;-64
2022/11/05 08:48:07;;;;;;;8.00;4.45;;;8.70;99.90;;;;;;4919921;29;20052;-64
2022/11/05 08:50:33;;;;;;;9.75;4.80;;;8.90;99.90;;;;;;4921025;29;20052;-65
2022/11/05 08:52:59;;;;;;;10.82;4.55;;;9.00;99.90;;;;;;4919381;29;20052;-64
2022/11/05 08:55:25;;;;;;;11.50;4.20;;;8.90;99.90;;;;;;4899464;29;20397;-65
2022/11/05 08:57:59;;;;;;;9.35;4.32;;;9.00;99.90;;;;;;4917935;29;20104;-64
2022/11/05 09:00:26;;;;;;;9.45;4.70;;;9.20;99.90;;;;;;4915506;29;20512;-64
2022/11/05 09:02:52;;;;;;;9.88;4.68;;;9.00;99.90;;;;;;4921252;29;20040;-64
2022/11/05 09:05:18;;;;;;;10.23;4.28;;;9.00;99.90;;;;;;4920359;29;20087;-65
2022/11/05 09:07:45;;;;;;;10.07;4.13;;;9.10;99.90;;;;;;4920246;29;20048;-63
2022/11/05 09:10:11;;;;;;;11.23;5.07;;;9.20;99.90;;;;;;4919812;29;20075;-63
2022/11/05 09:12:37;;;;;;;10.75;4.40;;;9.50;99.90;;;;;;4919778;29;20059;-64
2022/11/05 09:15:03;;;;;;;10.18;4.20;;;9.60;99.90;;;;;;4923054;29;20121;-64
2022/11/05 09:17:29;;;;;;;10.80;4.13;;;9.40;99.90;;;;;;4922803;29;20044;-65
2022/11/05 09:19:55;;;;;;;13.20;4.47;;;9.50;99.90;;;;;;4924147;29;20054;-65
2022/11/05 09:22:21;;;;;;;12.30;3.83;;;9.70;99.90;;;;;;4922527;29;20044;-65
2022/11/05 09:24:46;;;;;;;8.48;3.63;;;9.50;99.90;;;;;;4922650;29;20055;-65
2022/11/05 09:27:13;;;;;;;8.57;3.67;;;9.80;99.90;;;;;;4923749;29;20048;-65
2022/11/05 09:29:40;;;;;;;8.68;4.25;;;9.70;99.90;;;;;;4905688;29;20115;-64
2022/11/05 09:32:05;;;;;;;8.25;3.78;;;9.70;99.90;;;;;;4906990;29;20059;-63
2022/11/05 09:34:32;;;;;;;9.20;4.10;;;9.60;99.90;;;;;;4922253;29;20428;-64
2022/11/05 09:36:58;;;;;;;9.80;4.00;;;9.90;99.90;;;;;;4923384;29;20111;-64
2022/11/05 09:39:24;;;;;;;10.70;4.00;;;9.90;99.90;;;;;;4922110;29;20044;-64
2022/11/05 09:41:52;;;;;;;9.48;3.65;;;9.90;99.90;;;;;;4923062;29;20107;-64
2022/11/05 09:44:33;;;;;;;9.65;3.30;;;9.90;99.90;;;;;;4923379;29;20071;-65
2022/11/05 09:47:03;;;;;;;14.10;3.90;;;9.80;99.90;;;;;;4922356;29;20056;-65
2022/11/05 09:49:43;;;;;;;9.95;3.75;;;9.90;99.90;;;;;;4906644;29;20056;-64
2022/11/05 09:52:13;;;;;;;7.47;3.53;;;10.00;99.90;;;;;;4922477;29;20055;-64
2022/11/05 09:54:39;;;;;;;7.32;3.58;;;10.10;99.90;;;;;;4923260;29;20036;-64
2022/11/05 09:57:11;;;;;;;9.05;3.80;;;10.10;99.90;;;;;;4921753;29;20055;-64
2022/11/05 10:00:00;;;;;;;9.55;3.53;;;10.30;99.90;;;;;;4903122;29;20083;-64
2022/11/05 10:03:08;;;;;;;7.15;3.38;;;10.20;99.90;;;;;;4904343;29;20237;-64
2022/11/05 10:05:36;;;;;;;8.57;2.90;;;10.20;99.90;;;;;;4827165;29;20117;-64
2022/11/05 10:08:18;;;;;;;7.60;3.00;;;10.30;99.90;;;;;;4888685;29;20057;-65
2022/11/05 10:10:48;;;;;;;8.85;2.85;;;10.50;99.90;;;;;;4887211;29;20067;-64
2022/11/05 10:13:35;;;;;;;8.85;2.83;;;10.60;99.90;;;;;;4902761;29;20112;-64
2022/11/05 10:16:27;;;;;;;9.30;2.67;;;10.50;99.90;;;;;;4903888;29;20056;-64
2022/11/05 10:18:58;;;;;;;10.15;3.13;;;10.80;99.90;;;;;;4877468;29;20130;-64
2022/11/05 10:21:24;;;;;;;7.78;2.45;;;11.00;99.90;;;;;;4886146;29;20067;-64
2022/11/05 10:23:50;;;;;;;10.13;3.30;;;11.10;99.90;;;;;;4903792;29;20049;-65
2022/11/05 10:26:21;;;;;;;9.80;3.38;;;11.20;99.90;;;;;;4885012;29;20052;-64
2022/11/05 10:28:47;;;;;;;8.13;3.55;;;11.50;99.90;;;;;;4903255;29;20076;-64
2022/11/05 10:31:19;;;;;;;9.93;2.95;;;11.40;99.90;;;;;;4903246;29;20060;-64
2022/11/05 10:33:52;;;;;;;8.90;2.90;;;11.60;99.90;;;;;;4903107;29;20049;-64
2022/11/05 10:36:27;;;;;;;9.43;3.03;;;11.50;99.90;;;;;;4902966;29;20048;-64
2022/11/05 10:38:59;;;;;;;8.82;2.70;;;11.40;99.90;;;;;;4886066;29;20049;-64
2022/11/05 10:41:48;;;;;;;6.93;2.88;;;11.40;99.90;;;;;;4903569;29;20040;-63
2022/11/05 10:44:32;;;;;;;7.78;2.85;;;11.60;99.90;;;;;;4902753;29;20429;-64
2022/11/05 10:47:19;;;;;;;7.57;2.80;;;11.70;99.90;;;;;;4902232;29;20076;-65
2022/11/05 10:50:00;;;;;;;9.48;2.58;;;11.60;99.90;;;;;;4886599;29;20052;-61
2022/11/05 10:52:57;;;;;;;8.13;2.47;;;11.60;99.90;;;;;;4902703;29;20318;-64
2022/11/05 10:55:33;;;;;;;8.07;2.63;;;11.40;99.90;;;;;;4856933;29;20143;-64
2022/11/05 10:58:17;;;;;;;7.97;2.60;;;11.30;99.90;;;;;;4911188;29;20059;-64
2022/11/05 11:00:48;;;;;;;7.82;2.72;;;11.50;99.90;;;;;;4904200;29;20285;-64
2022/11/05 11:03:47;;;;;;;10.05;3.08;;;11.60;99.90;;;;;;4921602;29;20075;-64
2022/11/05 11:06:25;;;;;;;8.77;3.08;;;11.50;99.90;;;;;;4903871;29;20112;-65
2022/11/05 11:08:54;;;;;;;9.27;2.55;;;11.60;99.90;;;;;;4918343;29;20052;-65
2022/11/05 11:11:37;;;;;;;6.65;2.30;;;11.50;99.90;;;;;;4921868;29;20048;-64
2022/11/05 11:14:17;;;;;;;;;;;11.60;99.90;;;;;;4920368;29;20089;-64
2022/11/05 11:16:45;;;;;;;7.88;2.80;;;11.50;99.90;;;;;;4919384;29;19927;-65
2022/11/05 11:19:20;;;;;;;9.43;3.08;;;11.70;99.90;;;;;;4905040;29;20545;-64
2022/11/05 11:21:49;;;;;;;11.30;2.90;;;11.80;99.90;;;;;;4921137;29;20309;-64
2022/11/05 11:24:22;;;;;;;7.28;2.47;;;11.90;99.90;;;;;;4891418;29;20411;-64
2022/11/05 11:26:48;;;;;;;8.27;2.38;;;12.00;99.90;;;;;;4916070;29;20056;-64
2022/11/05 11:29:27;;;;;;;6.15;2.55;;;12.00;99.90;;;;;;4916343;29;20059;-64
2022/11/05 11:31:55;;;;;;;8.65;2.03;;;12.10;99.90;;;;;;4915417;29;20196;-64
2022/11/05 11:34:34;;;;;;;8.02;1.90;;;12.00;99.90;;;;;;4914999;29;20113;-64
2022/11/05 11:37:03;;;;;;;8.75;2.20;;;12.00;99.90;;;;;;4900331;29;20054;-64
2022/11/05 11:39:30;;;;;;;6.68;2.05;;;12.10;99.90;;;;;;4899263;29;20115;-63
2022/11/05 11:42:01;;;;;;;8.88;2.03;;;12.00;99.90;;;;;;4897569;29;20486;-64
2022/11/05 11:44:31;;;;;;;12.25;3.80;;;11.90;99.90;;;;;;4914969;29;20051;-64
2022/11/05 11:47:01;;;;;;;7.68;2.60;;;11.80;99.90;;;;;;4914648;29;20128;-64
2022/11/05 11:49:46;;;;;;;7.10;2.00;;;11.70;99.90;;;;;;4897836;29;20060;-64
2022/11/05 11:52:34;;;;;;;5.28;2.00;;;11.60;99.90;;;;;;4913828;29;20049;-64
2022/11/05 11:55:26;;;;;;;7.72;2.40;;;11.50;99.90;;;;;;4915037;29;20048;-63
2022/11/05 11:58:03;;;;;;;7.30;2.10;;;11.50;99.90;;;;;;4912740;29;20262;-64
2022/11/05 12:00:34;;;;;;;8.93;2.95;;;11.50;99.90;;;;;;4924474;29;20056;-63
2022/11/05 12:03:38;;;;;;;5.80;2.00;;;11.40;99.90;;;;;;4924988;29;20115;-63
2022/11/05 12:06:20;;;;;;;8.20;2.30;;;11.40;99.90;;;;;;4925378;29;20052;-63
2022/11/05 12:08:52;;;;;;;6.13;2.10;;;11.40;99.90;;;;;;4924097;29;20055;-63
2022/11/05 12:11:43;;;;;;;6.57;2.08;;;11.30;99.90;;;;;;4924939;29;20044;-63
2022/11/05 12:14:25;;;;;;;8.68;2.15;;;11.30;99.90;;;;;;4915130;29;20096;-64
2022/11/05 12:17:24;;;;;;;5.18;1.75;;;11.30;99.90;;;;;;4906649;29;20056;-64
2022/11/05 12:20:11;;;;;;;5.75;1.80;;;11.30;99.90;;;;;;4925115;29;20044;-65
2022/11/05 12:22:58;;;;;;;5.18;1.60;;;11.30;99.90;;;;;;4924394;29;20280;-63
2022/11/05 12:25:37;;;;;;;4.95;1.60;;;11.30;99.90;;;;;;4906619;29;20062;-59
2022/11/05 12:28:14;;;;;;;4.22;1.50;;;11.40;99.90;;;;;;4925033;29;20052;-63
2022/11/05 12:30:54;;;;;;;3.35;0.95;;;11.30;99.90;;;;;;4924433;29;20036;-64
2022/11/05 12:33:39;;;;;;;4.28;1.45;;;11.30;99.90;;;;;;4923995;29;20046;-64
2022/11/05 12:36:34;;;;;;;4.18;1.10;;;11.20;99.90;;;;;;4923751;29;20060;-64
2022/11/05 12:39:26;;;;;;;3.95;1.35;;;11.20;99.90;;;;;;4923191;29;20127;-64
2022/11/05 12:42:00;;;;;;;4.68;1.08;;;11.10;99.90;;;;;;4910258;29;20595;-64
2022/11/05 12:44:54;;;;;;;4.32;1.25;;;11.00;99.90;;;;;;4923843;29;20097;-64
2022/11/05 12:47:28;;;;;;;3.38;0.90;;;11.10;99.90;;;;;;4920920;29;20040;-63
2022/11/05 12:50:14;;;;;;;3.38;0.90;;;11.00;99.90;;;;;;4923304;29;20555;-64
2022/11/05 12:52:58;;;;;;;2.80;0.95;;;11.00;99.90;;;;;;4921530;29;20505;-64
2022/11/05 12:55:31;;;;;;;5.57;1.00;;;10.90;99.90;;;;;;4921932;29;20107;-65
2022/11/05 12:58:08;;;;;;;2.03;0.68;;;10.80;99.90;;;;;;4903435;29;20091;-64
2022/11/05 13:00:35;;;;;;;4.57;0.90;;;10.80;99.90;;;;;;4920485;29;20048;-63
2022/11/05 13:03:39;;;;;;;7.32;1.63;;;10.50;99.90;;;;;;4923198;29;20040;-65
2022/11/05 13:06:22;;;;;;;3.70;1.10;;;10.50;99.90;;;;;;4826732;29;20039;-66
2022/11/05 13:09:26;;;;;;;4.90;1.70;;;10.50;99.90;;;;;;4826571;29;20042;-67
2022/11/05 13:11:57;;;;;;;7.22;1.40;;;10.30;99.90;;;;;;4897727;29;20603;-67
2022/11/05 13:14:28;;;;;;;4.70;1.30;;;10.20;99.90;;;;;;4923399;29;20370;-66
2022/11/05 13:17:05;;;;;;;4.55;1.10;;;10.20;99.90;;;;;;4920573;29;20040;-67
2022/11/05 13:19:46;;;;;;;5.13;1.50;;;10.10;99.90;;;;;;4923844;29;20048;-67
2022/11/05 13:22:32;;;;;;;5.47;1.25;;;10.10;99.90;;;;;;4920275;29;20087;-68
2022/11/05 13:25:24;;;;;;;5.93;1.52;;;10.20;99.90;;;;;;4920632;29;20129;-69
2022/11/05 13:27:57;;;;;;;3.70;1.35;;;10.20;99.90;;;;;;4923004;29;20059;-70
2022/11/05 13:30:30;;;;;;;4.82;1.50;;;10.10;99.90;;;;;;4922744;29;20615;-69
2022/11/05 13:33:05;;;;;;;4.88;1.65;;;10.30;99.90;;;;;;4907111;29;20595;-69
2022/11/05 13:35:42;;;;;;;3.85;1.30;;;10.20;99.90;;;;;;4923568;29;20060;-69
2022/11/05 13:41:29;;;;;;;4.72;1.60;;;10.40;99.90;;;;;;4924003;29;20055;-68
2022/11/05 13:44:25;;;;;;;8.20;2.03;;;10.50;99.90;;;;;;4897878;29;20060;-67
2022/11/05 13:47:23;;;;;;;9.70;3.60;;;10.50;99.90;;;;;;4922285;29;20055;-68
2022/11/05 13:50:13;;;;;;;8.60;3.40;;;10.50;99.90;;;;;;4875655;29;20056;-67
2022/11/05 13:53:22;;;;;;;8.27;3.70;;;10.30;99.90;;;;;;4923038;29;20432;-67
2022/11/05 13:56:12;;;;;;;7.03;2.88;;;10.50;99.90;;;;;;4868478;29;20052;-66
2022/11/05 13:58:52;;;;;;;6.70;2.67;;;10.30;99.90;;;;;;4906148;29;20048;-66
2022/11/05 14:01:24;;;;;;;6.40;2.08;;;10.40;99.90;;;;;;4906064;29;20048;-65